sensor_id;sensor_type;location;lat;lon;timestamp;pressure;altitude;pressure_sealevel;temperature;humidity
12897;BME280;6516;35.028;32.372;2023-06-10T00:00:03;99131.69;;;20.64;89.03
12897;BME280;6516;35.028;32.372;2023-06-10T00:02:32;99131.06;;;20.61;87.94
12897;BME280;6516;35.028;32.372;2023-06-10T00:05:02;99139.19;;;20.59;88.26
12897;BME280;6516;35.028;32.372;2023-06-10T00:07:30;99133.97;;;20.58;87.95
12897;BME280;6516;35.028;32.372;2023-06-10T00:09:59;99131.41;;;20.56;87.41
12897;BME280;6516;35.028;32.372;2023-06-10T00:12:31;99129.34;;;20.60;86.61
12897;BME280;6516;35.028;32.372;2023-06-10T00:15:03;99134.56;;;20.61;85.44
12897;BME280;6516;35.028;32.372;2023-06-10T00:17:31;99130.81;;;20.64;84.72
12897;BME280;6516;35.028;32.372;2023-06-10T00:19:59;99126.84;;;20.69;84.93
12897;BME280;6516;35.028;32.372;2023-06-10T00:22:32;99121.28;;;20.72;84.39
12897;BME280;6516;35.028;32.372;2023-06-10T00:24:59;99124.78;;;20.73;84.23
12897;BME280;6516;35.028;32.372;2023-06-10T00:27:29;99123.41;;;20.67;84.51
12897;BME280;6516;35.028;32.372;2023-06-10T00:30:01;99123.88;;;20.61;84.19
12897;BME280;6516;35.028;32.372;2023-06-10T00:32:32;99123.66;;;20.64;84.03
12897;BME280;6516;35.028;32.372;2023-06-10T00:35:00;99112.28;;;20.73;84.02
12897;BME280;6516;35.028;32.372;2023-06-10T00:37:28;99107.63;;;20.75;83.24
12897;BME280;6516;35.028;32.372;2023-06-10T00:39:57;99117.00;;;20.70;83.64
12897;BME280;6516;35.028;32.372;2023-06-10T00:42:29;99116.34;;;20.66;83.87
12897;BME280;6516;35.028;32.372;2023-06-10T00:44:58;99116.47;;;20.65;84.38
12897;BME280;6516;35.028;32.372;2023-06-10T00:47:26;99110.19;;;20.66;83.79
12897;BME280;6516;35.028;32.372;2023-06-10T00:49:54;99105.78;;;20.65;82.46
12897;BME280;6516;35.028;32.372;2023-06-10T00:52:25;99108.41;;;20.54;83.27
12897;BME280;6516;35.028;32.372;2023-06-10T00:54:57;99105.13;;;20.50;83.16
12897;BME280;6516;35.028;32.372;2023-06-10T00:57:25;99103.41;;;20.49;82.95
12897;BME280;6516;35.028;32.372;2023-06-10T00:59:55;99102.78;;;20.46;83.00
12897;BME280;6516;35.028;32.372;2023-06-10T01:02:23;99102.66;;;20.47;82.61
12897;BME280;6516;35.028;32.372;2023-06-10T01:04:50;99105.44;;;20.46;82.23
12897;BME280;6516;35.028;32.372;2023-06-10T01:07:23;99109.97;;;20.45;82.15
12897;BME280;6516;35.028;32.372;2023-06-10T01:09:59;99103.13;;;20.41;82.99
12897;BME280;6516;35.028;32.372;2023-06-10T01:12:33;99107.81;;;20.38;82.79
12897;BME280;6516;35.028;32.372;2023-06-10T01:15:06;99101.44;;;20.40;83.02
12897;BME280;6516;35.028;32.372;2023-06-10T01:17:36;99106.19;;;20.48;82.42
12897;BME280;6516;35.028;32.372;2023-06-10T01:20:06;99103.41;;;20.49;82.30
12897;BME280;6516;35.028;32.372;2023-06-10T01:22:40;99104.16;;;20.51;81.74
12897;BME280;6516;35.028;32.372;2023-06-10T01:25:08;99107.28;;;20.45;81.42
12897;BME280;6516;35.028;32.372;2023-06-10T01:27:38;99098.06;;;20.49;81.19
12897;BME280;6516;35.028;32.372;2023-06-10T01:30:12;99089.50;;;20.44;80.65
12897;BME280;6516;35.028;32.372;2023-06-10T01:32:45;99089.50;;;20.44;80.28
12897;BME280;6516;35.028;32.372;2023-06-10T01:35:16;99087.66;;;20.34;80.18
12897;BME280;6516;35.028;32.372;2023-06-10T01:37:46;99091.13;;;20.23;81.25
12897;BME280;6516;35.028;32.372;2023-06-10T01:40:16;99084.06;;;20.22;80.35
12897;BME280;6516;35.028;32.372;2023-06-10T01:42:44;99086.44;;;20.14;80.90
12897;BME280;6516;35.028;32.372;2023-06-10T01:45:12;99081.53;;;20.08;81.54
12897;BME280;6516;35.028;32.372;2023-06-10T01:47:40;99076.41;;;20.05;81.62
12897;BME280;6516;35.028;32.372;2023-06-10T01:50:08;99076.50;;;20.04;81.51
12897;BME280;6516;35.028;32.372;2023-06-10T01:52:37;99073.53;;;19.96;81.98
12897;BME280;6516;35.028;32.372;2023-06-10T01:55:06;99084.56;;;19.91;81.95
12897;BME280;6516;35.028;32.372;2023-06-10T01:57:34;99077.28;;;19.93;82.25
12897;BME280;6516;35.028;32.372;2023-06-10T02:00:02;99070.97;;;19.94;82.36
12897;BME280;6516;35.028;32.372;2023-06-10T02:02:31;99072.56;;;19.97;82.22
12897;BME280;6516;35.028;32.372;2023-06-10T02:04:59;99076.56;;;19.91;82.15
12897;BME280;6516;35.028;32.372;2023-06-10T02:07:26;99073.00;;;19.91;81.98
12897;BME280;6516;35.028;32.372;2023-06-10T02:09:54;99065.34;;;19.86;81.79
12897;BME280;6516;35.028;32.372;2023-06-10T02:12:23;99062.13;;;19.81;82.04
12897;BME280;6516;35.028;32.372;2023-06-10T02:14:51;99065.03;;;19.78;81.89
12897;BME280;6516;35.028;32.372;2023-06-10T02:17:19;99066.34;;;19.73;81.98
12897;BME280;6516;35.028;32.372;2023-06-10T02:19:47;99065.72;;;19.69;82.06
12897;BME280;6516;35.028;32.372;2023-06-10T02:22:20;99062.28;;;19.67;82.24
12897;BME280;6516;35.028;32.372;2023-06-10T02:24:48;99065.91;;;19.66;82.40
12897;BME280;6516;35.028;32.372;2023-06-10T02:27:18;99060.56;;;19.66;82.43
12897;BME280;6516;35.028;32.372;2023-06-10T02:29:47;99066.03;;;19.77;82.61
12897;BME280;6516;35.028;32.372;2023-06-10T02:32:15;99062.13;;;19.81;82.16
12897;BME280;6516;35.028;32.372;2023-06-10T02:34:43;99064.81;;;19.81;81.80
12897;BME280;6516;35.028;32.372;2023-06-10T02:37:14;99067.47;;;19.81;81.18
12897;BME280;6516;35.028;32.372;2023-06-10T02:39:41;99073.38;;;19.86;81.60
12897;BME280;6516;35.028;32.372;2023-06-10T02:42:09;99078.47;;;19.89;81.42
12897;BME280;6516;35.028;32.372;2023-06-10T02:44:37;99078.56;;;20.00;80.28
12897;BME280;6516;35.028;32.372;2023-06-10T02:47:07;99064.44;;;20.11;79.62
12897;BME280;6516;35.028;32.372;2023-06-10T02:49:35;99073.38;;;20.22;79.17
12897;BME280;6516;35.028;32.372;2023-06-10T02:52:03;99065.88;;;20.27;78.83
12897;BME280;6516;35.028;32.372;2023-06-10T02:54:32;99059.69;;;20.38;78.07
12897;BME280;6516;35.028;32.372;2023-06-10T02:57:01;99056.19;;;20.37;77.74
12897;BME280;6516;35.028;32.372;2023-06-10T02:59:29;99063.25;;;20.38;78.30
12897;BME280;6516;35.028;32.372;2023-06-10T03:01:57;99064.94;;;20.39;78.11
12897;BME280;6516;35.028;32.372;2023-06-10T03:04:31;99065.84;;;20.51;79.06
12897;BME280;6516;35.028;32.372;2023-06-10T03:06:58;99062.06;;;20.53;78.99
12897;BME280;6516;35.028;32.372;2023-06-10T03:09:29;99059.41;;;20.53;78.92
12897;BME280;6516;35.028;32.372;2023-06-10T03:11:57;99064.69;;;20.66;79.34
12897;BME280;6516;35.028;32.372;2023-06-10T03:14:26;99063.63;;;20.68;79.53
12897;BME280;6516;35.028;32.372;2023-06-10T03:16:54;99070.94;;;20.77;80.51
12897;BME280;6516;35.028;32.372;2023-06-10T03:19:21;99074.50;;;20.89;81.65
12897;BME280;6516;35.028;32.372;2023-06-10T03:21:58;99071.03;;;20.99;81.95
12897;BME280;6516;35.028;32.372;2023-06-10T03:24:35;99072.47;;;21.03;82.00
12897;BME280;6516;35.028;32.372;2023-06-10T03:27:06;99072.72;;;21.00;81.45
12897;BME280;6516;35.028;32.372;2023-06-10T03:29:35;99064.72;;;21.00;82.46
12897;BME280;6516;35.028;32.372;2023-06-10T03:32:03;99070.19;;;21.10;84.35
12897;BME280;6516;35.028;32.372;2023-06-10T03:34:31;99065.84;;;21.20;85.89
12897;BME280;6516;35.028;32.372;2023-06-10T03:37:00;99067.91;;;21.27;86.09
12897;BME280;6516;35.028;32.372;2023-06-10T03:39:28;99063.78;;;21.45;88.86
12897;BME280;6516;35.028;32.372;2023-06-10T03:41:56;99053.31;;;21.64;91.03
12897;BME280;6516;35.028;32.372;2023-06-10T03:44:24;99052.84;;;21.81;91.60
12897;BME280;6516;35.028;32.372;2023-06-10T03:46:53;99058.66;;;21.97;91.92
12897;BME280;6516;35.028;32.372;2023-06-10T03:49:21;99059.47;;;22.09;92.14
12897;BME280;6516;35.028;32.372;2023-06-10T03:51:52;99075.41;;;22.21;91.68
12897;BME280;6516;35.028;32.372;2023-06-10T03:54:22;99070.63;;;22.36;91.47
12897;BME280;6516;35.028;32.372;2023-06-10T03:56:50;99083.19;;;22.46;90.85
12897;BME280;6516;35.028;32.372;2023-06-10T03:59:17;99079.47;;;22.58;90.55
12897;BME280;6516;35.028;32.372;2023-06-10T04:01:46;99070.50;;;22.69;90.71
12897;BME280;6516;35.028;32.372;2023-06-10T04:04:33;99078.97;;;22.85;90.23
12897;BME280;6516;35.028;32.372;2023-06-10T04:07:03;99085.91;;;22.87;90.04
12897;BME280;6516;35.028;32.372;2023-06-10T04:09:33;99084.03;;;22.99;89.38
12897;BME280;6516;35.028;32.372;2023-06-10T04:12:02;99088.38;;;23.11;88.31
12897;BME280;6516;35.028;32.372;2023-06-10T04:14:32;99084.16;;;23.18;88.22
12897;BME280;6516;35.028;32.372;2023-06-10T04:16:59;99087.94;;;23.26;87.77
12897;BME280;6516;35.028;32.372;2023-06-10T04:19:27;99084.16;;;23.38;87.54
12897;BME280;6516;35.028;32.372;2023-06-10T04:21:56;99077.00;;;23.48;86.25
12897;BME280;6516;35.028;32.372;2023-06-10T04:24:24;99081.56;;;23.57;84.93
12897;BME280;6516;35.028;32.372;2023-06-10T04:26:53;99080.50;;;23.69;83.95
12897;BME280;6516;35.028;32.372;2023-06-10T04:29:21;99087.88;;;23.77;83.14
12897;BME280;6516;35.028;32.372;2023-06-10T04:31:49;99090.38;;;23.89;82.65
12897;BME280;6516;35.028;32.372;2023-06-10T04:34:17;99092.88;;;24.21;81.11
12897;BME280;6516;35.028;32.372;2023-06-10T04:36:45;99101.00;;;24.49;79.27
12897;BME280;6516;35.028;32.372;2023-06-10T04:39:13;99095.41;;;24.71;78.93
12897;BME280;6516;35.028;32.372;2023-06-10T04:41:42;99099.66;;;24.93;77.70
12897;BME280;6516;35.028;32.372;2023-06-10T04:44:11;99107.41;;;25.05;76.46
12897;BME280;6516;35.028;32.372;2023-06-10T04:46:39;99094.91;;;25.23;75.75
12897;BME280;6516;35.028;32.372;2023-06-10T04:49:07;99104.88;;;25.23;75.33
12897;BME280;6516;35.028;32.372;2023-06-10T04:51:35;99111.81;;;25.44;74.24
12897;BME280;6516;35.028;32.372;2023-06-10T04:54:03;99107.03;;;25.65;73.18
12897;BME280;6516;35.028;32.372;2023-06-10T04:56:31;99101.97;;;25.99;71.64
12897;BME280;6516;35.028;32.372;2023-06-10T04:58:59;99103.63;;;26.09;70.83
12897;BME280;6516;35.028;32.372;2023-06-10T05:01:28;99109.16;;;26.35;69.54
12897;BME280;6516;35.028;32.372;2023-06-10T05:03:56;99104.75;;;26.78;67.55
12897;BME280;6516;35.028;32.372;2023-06-10T05:06:24;99112.56;;;26.81;66.65
12897;BME280;6516;35.028;32.372;2023-06-10T05:08:51;99109.53;;;27.20;65.65
12897;BME280;6516;35.028;32.372;2023-06-10T05:11:19;99112.91;;;27.39;64.08
12897;BME280;6516;35.028;32.372;2023-06-10T05:13:47;99111.28;;;27.46;61.76
12897;BME280;6516;35.028;32.372;2023-06-10T05:16:15;99112.38;;;27.61;62.05
12897;BME280;6516;35.028;32.372;2023-06-10T05:18:45;99110.19;;;28.16;60.29
12897;BME280;6516;35.028;32.372;2023-06-10T05:21:13;99102.84;;;28.08;61.19
12897;BME280;6516;35.028;32.372;2023-06-10T05:23:41;99118.72;;;28.37;59.81
12897;BME280;6516;35.028;32.372;2023-06-10T05:26:09;99112.41;;;28.78;60.17
12897;BME280;6516;35.028;32.372;2023-06-10T05:28:36;99114.88;;;29.21;58.87
12897;BME280;6516;35.028;32.372;2023-06-10T05:31:04;99121.59;;;28.85;58.68
12897;BME280;6516;35.028;32.372;2023-06-10T05:33:32;99116.91;;;29.11;58.51
12897;BME280;6516;35.028;32.372;2023-06-10T05:36:01;99130.78;;;29.08;58.59
12897;BME280;6516;35.028;32.372;2023-06-10T05:38:29;99127.75;;;29.27;57.05
12897;BME280;6516;35.028;32.372;2023-06-10T05:40:57;99126.06;;;29.26;57.11
12897;BME280;6516;35.028;32.372;2023-06-10T05:43:25;99126.03;;;29.42;56.27
12897;BME280;6516;35.028;32.372;2023-06-10T05:45:53;99126.22;;;29.72;55.52
12897;BME280;6516;35.028;32.372;2023-06-10T05:48:21;99127.03;;;29.81;55.35
12897;BME280;6516;35.028;32.372;2023-06-10T05:50:49;99120.84;;;30.11;54.53
12897;BME280;6516;35.028;32.372;2023-06-10T05:53:18;99123.03;;;30.15;53.91
12897;BME280;6516;35.028;32.372;2023-06-10T05:55:46;99126.00;;;29.90;54.59
12897;BME280;6516;35.028;32.372;2023-06-10T05:58:14;99136.22;;;29.72;55.04
12897;BME280;6516;35.028;32.372;2023-06-10T06:00:42;99131.13;;;29.69;55.39
12897;BME280;6516;35.028;32.372;2023-06-10T06:03:10;99125.25;;;30.04;54.30
12897;BME280;6516;35.028;32.372;2023-06-10T06:05:38;99132.44;;;29.89;54.92
12897;BME280;6516;35.028;32.372;2023-06-10T06:08:05;99128.06;;;29.64;56.05
12897;BME280;6516;35.028;32.372;2023-06-10T06:10:35;99131.78;;;29.79;55.02
12897;BME280;6516;35.028;32.372;2023-06-10T06:13:03;99133.63;;;29.86;55.07
12897;BME280;6516;35.028;32.372;2023-06-10T06:15:31;99130.38;;;29.91;55.17
12897;BME280;6516;35.028;32.372;2023-06-10T06:17:58;99131.09;;;29.85;55.54
12897;BME280;6516;35.028;32.372;2023-06-10T06:20:26;99128.56;;;29.51;55.90
12897;BME280;6516;35.028;32.372;2023-06-10T06:22:54;99124.31;;;29.73;55.60
12897;BME280;6516;35.028;32.372;2023-06-10T06:25:22;99125.81;;;29.91;55.22
12897;BME280;6516;35.028;32.372;2023-06-10T06:27:51;99120.22;;;29.85;54.47
12897;BME280;6516;35.028;32.372;2023-06-10T06:30:19;99119.69;;;29.97;53.96
12897;BME280;6516;35.028;32.372;2023-06-10T06:32:47;99113.41;;;29.97;53.44
12897;BME280;6516;35.028;32.372;2023-06-10T06:35:15;99122.25;;;29.83;54.56
12897;BME280;6516;35.028;32.372;2023-06-10T06:37:42;99120.69;;;30.04;53.77
12897;BME280;6516;35.028;32.372;2023-06-10T06:40:11;99112.66;;;30.19;54.45
12897;BME280;6516;35.028;32.372;2023-06-10T06:42:39;99109.28;;;30.09;53.33
12897;BME280;6516;35.028;32.372;2023-06-10T06:45:09;99109.63;;;30.06;54.39
12897;BME280;6516;35.028;32.372;2023-06-10T06:47:37;99112.88;;;30.48;53.96
12897;BME280;6516;35.028;32.372;2023-06-10T06:50:06;99118.91;;;30.35;53.33
12897;BME280;6516;35.028;32.372;2023-06-10T06:52:34;99112.28;;;30.68;52.02
12897;BME280;6516;35.028;32.372;2023-06-10T06:55:02;99113.16;;;30.61;53.12
12897;BME280;6516;35.028;32.372;2023-06-10T06:57:30;99111.78;;;30.65;52.16
12897;BME280;6516;35.028;32.372;2023-06-10T06:59:57;99101.72;;;30.96;51.59
12897;BME280;6516;35.028;32.372;2023-06-10T07:02:27;99108.78;;;30.82;51.63
12897;BME280;6516;35.028;32.372;2023-06-10T07:04:55;99124.81;;;31.00;51.93
12897;BME280;6516;35.028;32.372;2023-06-10T07:07:22;99115.84;;;31.14;51.12
12897;BME280;6516;35.028;32.372;2023-06-10T07:09:50;99112.88;;;31.31;49.53
12897;BME280;6516;35.028;32.372;2023-06-10T07:12:18;99109.59;;;31.36;50.52
12897;BME280;6516;35.028;32.372;2023-06-10T07:14:49;99108.19;;;31.17;50.99
12897;BME280;6516;35.028;32.372;2023-06-10T07:17:17;99107.94;;;30.82;51.15
12897;BME280;6516;35.028;32.372;2023-06-10T07:19:47;99105.00;;;30.91;51.73
12897;BME280;6516;35.028;32.372;2023-06-10T07:22:14;99102.81;;;30.87;50.82
12897;BME280;6516;35.028;32.372;2023-06-10T07:24:42;99099.47;;;30.77;51.56
12897;BME280;6516;35.028;32.372;2023-06-10T07:27:12;99102.44;;;30.67;50.58
12897;BME280;6516;35.028;32.372;2023-06-10T07:29:40;99104.88;;;30.54;51.46
12897;BME280;6516;35.028;32.372;2023-06-10T07:32:08;99095.91;;;30.46;50.95
12897;BME280;6516;35.028;32.372;2023-06-10T07:34:36;99102.50;;;30.51;52.12
12897;BME280;6516;35.028;32.372;2023-06-10T07:37:06;99096.41;;;30.80;51.92
12897;BME280;6516;35.028;32.372;2023-06-10T07:39:34;99090.16;;;30.41;50.71
12897;BME280;6516;35.028;32.372;2023-06-10T07:42:02;99105.22;;;30.13;51.45
12897;BME280;6516;35.028;32.372;2023-06-10T07:44:30;99104.19;;;30.14;52.94
12897;BME280;6516;35.028;32.372;2023-06-10T07:46:58;99098.09;;;30.20;53.81
12897;BME280;6516;35.028;32.372;2023-06-10T07:49:26;99102.00;;;30.09;53.30
12897;BME280;6516;35.028;32.372;2023-06-10T07:51:54;99105.09;;;30.45;52.51
12897;BME280;6516;35.028;32.372;2023-06-10T07:54:23;99102.16;;;30.54;52.77
12897;BME280;6516;35.028;32.372;2023-06-10T07:56:51;99111.69;;;30.50;52.84
12897;BME280;6516;35.028;32.372;2023-06-10T07:59:19;99103.34;;;30.82;51.86
12897;BME280;6516;35.028;32.372;2023-06-10T08:01:47;99106.47;;;30.71;52.16
12897;BME280;6516;35.028;32.372;2023-06-10T08:04:14;99112.31;;;30.60;52.09
12897;BME280;6516;35.028;32.372;2023-06-10T08:06:42;99106.47;;;30.71;51.84
12897;BME280;6516;35.028;32.372;2023-06-10T08:09:10;99116.53;;;30.93;51.87
12897;BME280;6516;35.028;32.372;2023-06-10T08:11:39;99114.31;;;30.97;50.59
12897;BME280;6516;35.028;32.372;2023-06-10T08:14:07;99108.94;;;31.34;50.90
12897;BME280;6516;35.028;32.372;2023-06-10T08:16:35;99113.09;;;30.99;50.55
12897;BME280;6516;35.028;32.372;2023-06-10T08:19:02;99104.03;;;31.07;50.80
12897;BME280;6516;35.028;32.372;2023-06-10T08:21:30;99099.00;;;31.18;50.67
12897;BME280;6516;35.028;32.372;2023-06-10T08:23:59;99092.91;;;31.39;49.92
12897;BME280;6516;35.028;32.372;2023-06-10T08:26:27;99089.81;;;31.42;49.07
12897;BME280;6516;35.028;32.372;2023-06-10T08:28:56;99077.31;;;31.33;49.81
12897;BME280;6516;35.028;32.372;2023-06-10T08:31:24;99090.72;;;31.12;50.04
12897;BME280;6516;35.028;32.372;2023-06-10T08:33:51;99084.19;;;31.21;50.23
12897;BME280;6516;35.028;32.372;2023-06-10T08:36:19;99079.47;;;31.37;49.25
12897;BME280;6516;35.028;32.372;2023-06-10T08:38:47;99077.97;;;31.35;49.68
12897;BME280;6516;35.028;32.372;2023-06-10T08:41:17;99064.91;;;31.08;49.84
12897;BME280;6516;35.028;32.372;2023-06-10T08:43:51;99062.81;;;30.95;50.27
12897;BME280;6516;35.028;32.372;2023-06-10T08:46:25;99064.19;;;31.36;49.85
12897;BME280;6516;35.028;32.372;2023-06-10T08:48:55;99069.00;;;31.63;48.90
12897;BME280;6516;35.028;32.372;2023-06-10T08:51:26;99055.84;;;31.52;49.41
12897;BME280;6516;35.028;32.372;2023-06-10T08:54:01;99069.44;;;31.38;49.91
12897;BME280;6516;35.028;32.372;2023-06-10T08:56:32;99062.22;;;31.45;50.04
12897;BME280;6516;35.028;32.372;2023-06-10T08:59:05;99077.06;;;31.20;50.08
12897;BME280;6516;35.028;32.372;2023-06-10T09:01:33;99061.53;;;31.06;51.04
12897;BME280;6516;35.028;32.372;2023-06-10T09:04:02;99071.28;;;31.00;50.93
12897;BME280;6516;35.028;32.372;2023-06-10T09:06:32;99060.38;;;30.78;51.26
12897;BME280;6516;35.028;32.372;2023-06-10T09:09:00;99046.22;;;30.60;51.24
12897;BME280;6516;35.028;32.372;2023-06-10T09:11:28;99061.47;;;30.69;51.41
12897;BME280;6516;35.028;32.372;2023-06-10T09:13:55;99065.91;;;30.70;50.70
12897;BME280;6516;35.028;32.372;2023-06-10T09:16:25;99056.00;;;30.46;50.51
12897;BME280;6516;35.028;32.372;2023-06-10T09:18:53;99054.00;;;30.40;51.41
12897;BME280;6516;35.028;32.372;2023-06-10T09:21:22;99056.34;;;30.43;51.21
12897;BME280;6516;35.028;32.372;2023-06-10T09:23:50;99064.19;;;30.38;50.97
12897;BME280;6516;35.028;32.372;2023-06-10T09:26:18;99048.94;;;30.60;51.11
12897;BME280;6516;35.028;32.372;2023-06-10T09:28:48;99051.28;;;30.63;50.89
12897;BME280;6516;35.028;32.372;2023-06-10T09:31:16;99064.31;;;30.75;50.57
12897;BME280;6516;35.028;32.372;2023-06-10T09:33:48;99059.91;;;30.44;51.06
12897;BME280;6516;35.028;32.372;2023-06-10T09:36:21;99053.69;;;30.35;51.52
12897;BME280;6516;35.028;32.372;2023-06-10T09:38:50;99057.59;;;30.63;50.50
12897;BME280;6516;35.028;32.372;2023-06-10T09:41:17;99059.44;;;30.63;50.24
12897;BME280;6516;35.028;32.372;2023-06-10T09:43:45;99074.81;;;30.56;51.42
12897;BME280;6516;35.028;32.372;2023-06-10T09:46:15;99069.44;;;30.70;50.95
12897;BME280;6516;35.028;32.372;2023-06-10T09:48:44;99077.28;;;30.35;50.92
12897;BME280;6516;35.028;32.372;2023-06-10T09:51:15;99070.44;;;30.47;50.91
12897;BME280;6516;35.028;32.372;2023-06-10T09:53:48;99068.75;;;30.76;50.71
12897;BME280;6516;35.028;32.372;2023-06-10T09:56:16;99074.16;;;30.99;49.26
12897;BME280;6516;35.028;32.372;2023-06-10T09:58:45;99082.00;;;30.71;50.69
12897;BME280;6516;35.028;32.372;2023-06-10T10:01:14;99074.06;;;30.62;49.78
12897;BME280;6516;35.028;32.372;2023-06-10T10:03:45;99077.88;;;30.53;50.37
12897;BME280;6516;35.028;32.372;2023-06-10T10:06:15;99070.72;;;30.82;50.87
12897;BME280;6516;35.028;32.372;2023-06-10T10:08:44;99072.50;;;31.12;49.27
12897;BME280;6516;35.028;32.372;2023-06-10T10:11:14;99066.78;;;31.30;48.75
12897;BME280;6516;35.028;32.372;2023-06-10T10:13:45;99080.09;;;31.25;49.68
12897;BME280;6516;35.028;32.372;2023-06-10T10:16:16;99075.03;;;31.22;49.70
12897;BME280;6516;35.028;32.372;2023-06-10T10:18:49;99078.31;;;31.32;48.44
12897;BME280;6516;35.028;32.372;2023-06-10T10:21:23;99083.22;;;31.36;49.66
12897;BME280;6516;35.028;32.372;2023-06-10T10:24:01;99080.50;;;31.36;48.37
12897;BME280;6516;35.028;32.372;2023-06-10T10:26:34;99088.00;;;31.34;48.48
12897;BME280;6516;35.028;32.372;2023-06-10T10:29:09;99071.59;;;31.42;48.95
12897;BME280;6516;35.028;32.372;2023-06-10T10:31:39;99082.13;;;31.60;48.50
12897;BME280;6516;35.028;32.372;2023-06-10T10:34:15;99081.06;;;31.83;47.56
12897;BME280;6516;35.028;32.372;2023-06-10T10:36:48;99073.16;;;31.88;48.55
12897;BME280;6516;35.028;32.372;2023-06-10T10:39:16;99072.69;;;32.28;49.24
12897;BME280;6516;35.028;32.372;2023-06-10T10:41:45;99081.41;;;32.24;48.01
12897;BME280;6516;35.028;32.372;2023-06-10T10:44:14;99079.31;;;31.68;48.36
12897;BME280;6516;35.028;32.372;2023-06-10T10:46:43;99082.13;;;31.60;48.66
12897;BME280;6516;35.028;32.372;2023-06-10T10:49:13;99085.38;;;31.92;48.99
12897;BME280;6516;35.028;32.372;2023-06-10T10:51:56;99083.19;;;31.73;50.03
12897;BME280;6516;35.028;32.372;2023-06-10T10:54:31;99081.13;;;31.24;51.98
12897;BME280;6516;35.028;32.372;2023-06-10T10:57:16;99098.13;;;31.26;52.67
12897;BME280;6516;35.028;32.372;2023-06-10T10:59:50;99093.25;;;31.36;52.35
12897;BME280;6516;35.028;32.372;2023-06-10T11:02:36;99084.88;;;31.00;54.12
12897;BME280;6516;35.028;32.372;2023-06-10T11:05:06;99096.13;;;30.67;53.92
12897;BME280;6516;35.028;32.372;2023-06-10T11:07:37;99076.75;;;30.92;53.49
12897;BME280;6516;35.028;32.372;2023-06-10T11:10:10;99089.00;;;30.66;52.53
12897;BME280;6516;35.028;32.372;2023-06-10T11:12:49;99079.16;;;30.65;53.56
12897;BME280;6516;35.028;32.372;2023-06-10T11:15:19;99088.13;;;30.65;54.00
12897;BME280;6516;35.028;32.372;2023-06-10T11:18:06;99098.53;;;30.62;53.65
12897;BME280;6516;35.028;32.372;2023-06-10T11:20:56;99081.78;;;31.03;53.08
12897;BME280;6516;35.028;32.372;2023-06-10T11:23:39;99080.84;;;30.74;53.90
12897;BME280;6516;35.028;32.372;2023-06-10T11:26:15;99077.94;;;30.37;55.33
12897;BME280;6516;35.028;32.372;2023-06-10T11:29:16;99071.00;;;30.34;54.48
12897;BME280;6516;35.028;32.372;2023-06-10T11:31:49;99073.38;;;30.37;53.85
12897;BME280;6516;35.028;32.372;2023-06-10T11:34:22;99073.69;;;30.42;54.42
12897;BME280;6516;35.028;32.372;2023-06-10T11:36:51;99075.19;;;30.45;54.92
12897;BME280;6516;35.028;32.372;2023-06-10T11:39:21;99082.91;;;30.33;53.93
12897;BME280;6516;35.028;32.372;2023-06-10T11:41:52;99080.91;;;30.27;55.08
12897;BME280;6516;35.028;32.372;2023-06-10T11:44:20;99084.81;;;30.25;55.64
12897;BME280;6516;35.028;32.372;2023-06-10T11:46:48;99068.38;;;30.18;56.14
12897;BME280;6516;35.028;32.372;2023-06-10T11:49:17;99068.06;;;30.05;55.91
12897;BME280;6516;35.028;32.372;2023-06-10T11:51:45;99077.34;;;30.19;55.35
12897;BME280;6516;35.028;32.372;2023-06-10T11:54:17;99077.72;;;30.08;55.33
12897;BME280;6516;35.028;32.372;2023-06-10T11:56:46;99078.78;;;29.99;55.84
12897;BME280;6516;35.028;32.372;2023-06-10T11:59:15;99073.47;;;29.67;55.92
12897;BME280;6516;35.028;32.372;2023-06-10T12:01:44;99079.81;;;29.98;55.71
12897;BME280;6516;35.028;32.372;2023-06-10T12:04:13;99073.81;;;30.10;54.79
12897;BME280;6516;35.028;32.372;2023-06-10T12:06:44;99089.00;;;29.89;55.62
12897;BME280;6516;35.028;32.372;2023-06-10T12:09:14;99073.25;;;29.76;55.79
12897;BME280;6516;35.028;32.372;2023-06-10T12:11:49;99085.28;;;29.74;55.75
12897;BME280;6516;35.028;32.372;2023-06-10T12:14:53;99089.03;;;29.73;57.15
12897;BME280;6516;35.028;32.372;2023-06-10T12:17:23;99073.63;;;29.73;55.77
12897;BME280;6516;35.028;32.372;2023-06-10T12:19:51;99078.88;;;29.51;56.49
12897;BME280;6516;35.028;32.372;2023-06-10T12:22:20;99070.22;;;29.55;54.82
12897;BME280;6516;35.028;32.372;2023-06-10T12:24:58;99068.56;;;29.30;57.33
12897;BME280;6516;35.028;32.372;2023-06-10T12:27:28;99070.41;;;29.38;57.01
12897;BME280;6516;35.028;32.372;2023-06-10T12:29:57;99068.38;;;29.48;56.44
12897;BME280;6516;35.028;32.372;2023-06-10T12:32:37;99071.09;;;29.48;55.18
12897;BME280;6516;35.028;32.372;2023-06-10T12:35:07;99066.16;;;29.51;55.57
12897;BME280;6516;35.028;32.372;2023-06-10T12:37:36;99058.88;;;29.68;55.57
12897;BME280;6516;35.028;32.372;2023-06-10T12:40:06;99061.09;;;29.56;56.28
12897;BME280;6516;35.028;32.372;2023-06-10T12:42:37;99052.69;;;29.90;54.94
12897;BME280;6516;35.028;32.372;2023-06-10T12:45:06;99055.47;;;29.50;56.06
12897;BME280;6516;35.028;32.372;2023-06-10T12:47:37;99059.91;;;29.43;56.10
12897;BME280;6516;35.028;32.372;2023-06-10T12:50:06;99063.28;;;29.53;55.55
12897;BME280;6516;35.028;32.372;2023-06-10T12:52:34;99059.56;;;29.62;56.04
12897;BME280;6516;35.028;32.372;2023-06-10T12:55:02;99058.88;;;29.52;55.26
12897;BME280;6516;35.028;32.372;2023-06-10T12:57:30;99066.00;;;29.37;57.64
12897;BME280;6516;35.028;32.372;2023-06-10T12:59:59;99063.84;;;29.32;57.64
12897;BME280;6516;35.028;32.372;2023-06-10T13:02:29;99060.63;;;29.05;58.42
12897;BME280;6516;35.028;32.372;2023-06-10T13:04:57;99062.66;;;29.35;58.02
12897;BME280;6516;35.028;32.372;2023-06-10T13:07:25;99063.66;;;29.26;57.81
12897;BME280;6516;35.028;32.372;2023-06-10T13:09:53;99062.13;;;28.83;59.12
12897;BME280;6516;35.028;32.372;2023-06-10T13:12:20;99058.03;;;28.79;59.32